Kenneth, Minnesota
Current Conditions -  °F | °C
As of 3:14 AM on Friday 31 Oct 2014 (Local Time) from KLYV Reporting Station
Clear Clear  
Wind Chill: 19°   Ceiling: Unl
Heat Index: 28°   Visibility: 10mi
Dew Point: 21°   Wind: 10mph
Humidity: 74%   Direction: 10°N
Pressure: 30.5"   Gusts: 16mph
Location:  43.75°N, 96.07°W
Report Text: KLYV 310814Z AUTO 01009G14KT 10SM CLR M02/M06 A3050 RMK AO2
Loading
Personal Weather Stations






























Interactive Weather Map
Tropical Storm Tracking
New forecast layout! Learn more

10-Day Weather Forecast

Advertisements
Track Severe Weather on mobile